createdAt,value
2018-11-27T00:00:41.322Z,22.82
2018-11-27T00:03:10.194Z,22.37
2018-11-27T00:05:39.317Z,24.12
2018-11-27T00:08:08.309Z,21.42
2018-11-27T00:10:39.031Z,23.12
2018-11-27T00:13:07.790Z,23.45
2018-11-27T00:15:36.480Z,23.55
2018-11-27T00:18:05.515Z,24.45
2018-11-27T00:20:34.201Z,23.67
2018-11-27T00:23:02.939Z,23.55
2018-11-27T00:25:31.739Z,23.80
2018-11-27T00:28:00.511Z,22.65
2018-11-27T00:30:29.217Z,22.75
2018-11-27T00:32:57.863Z,24.55
2018-11-27T00:35:26.610Z,22.75
2018-11-27T00:37:55.324Z,25.02
2018-11-27T00:40:24.617Z,25.55
2018-11-27T00:42:53.402Z,25.23
2018-11-27T00:45:22.406Z,23.18
2018-11-27T00:47:51.640Z,24.23
2018-11-27T00:50:22.607Z,22.00
2018-11-27T00:52:51.374Z,24.50
2018-11-27T00:55:20.800Z,23.45
2018-11-27T00:57:50.697Z,24.12
2018-11-27T01:00:21.630Z,25.00
2018-11-27T01:02:50.369Z,22.52
2018-11-27T01:05:20.470Z,24.52
2018-11-27T01:07:49.207Z,23.27
2018-11-27T01:10:19.032Z,24.75
2018-11-27T01:12:47.760Z,24.25
2018-11-27T01:15:16.896Z,23.77
2018-11-27T01:17:47.806Z,21.87
2018-11-27T01:20:17.863Z,23.07
2018-11-27T01:22:47.581Z,23.30
2018-11-27T01:25:16.364Z,22.35
2018-11-27T01:27:45.068Z,21.30
2018-11-27T01:30:16.727Z,24.27
2018-11-27T01:32:45.705Z,23.32
2018-11-27T01:35:17.469Z,22.15
2018-11-27T01:37:46.727Z,24.05
2018-11-27T01:40:17.524Z,24.55
2018-11-27T01:42:47.104Z,22.35
2018-11-27T01:45:18.379Z,23.30
2018-11-27T01:47:47.359Z,20.12
2018-11-27T01:50:17.122Z,21.95
2018-11-27T01:52:45.949Z,20.35
2018-11-27T01:55:15.830Z,20.70
2018-11-27T01:57:44.894Z,21.70
2018-11-27T02:00:23.054Z,19.87
2018-11-27T02:02:52.226Z,22.73
2018-11-27T02:05:21.423Z,22.05
2018-11-27T02:07:50.135Z,20.37
2018-11-27T02:10:18.852Z,20.95
2018-11-27T02:12:49.259Z,21.07
2018-11-27T02:15:22.115Z,20.57
2018-11-27T02:17:50.920Z,20.88
2018-11-27T02:20:19.666Z,20.60
2018-11-27T02:22:48.682Z,20.27
2018-11-27T02:25:24.167Z,21.77
2018-11-27T02:27:53.240Z,19.73
2018-11-27T02:30:22.853Z,19.10
2018-11-27T02:32:51.660Z,20.80
2018-11-27T02:35:21.863Z,20.20
2018-11-27T02:37:51.888Z,18.55
2018-11-27T02:40:20.717Z,21.52
2018-11-27T02:42:49.539Z,22.82
2018-11-27T02:45:25.848Z,20.65
2018-11-27T02:47:55.120Z,18.60
2018-11-27T02:50:24.649Z,22.70
2018-11-27T02:52:53.424Z,20.95
2018-11-27T02:55:26.415Z,20.40
2018-11-27T02:57:55.193Z,21.23
2018-11-27T03:00:25.095Z,21.10
2018-11-27T03:02:53.861Z,19.73
2018-11-27T03:05:35.088Z,17.67
2018-11-27T03:08:03.870Z,20.27
2018-11-27T03:10:32.841Z,17.02
2018-11-27T03:13:01.556Z,18.27
2018-11-27T03:15:30.443Z,19.80
2018-11-27T03:17:59.195Z,18.45
2018-11-27T03:20:27.904Z,19.12
2018-11-27T03:22:56.707Z,18.67
2018-11-27T03:25:25.330Z,20.85
2018-11-27T03:27:54.978Z,19.17
2018-11-27T03:30:26.133Z,18.42
2018-11-27T03:32:54.916Z,17.98
2018-11-27T03:35:24.729Z,17.90
2018-11-27T03:37:53.575Z,17.85
2018-11-27T03:40:27.030Z,19.32
2018-11-27T03:42:55.943Z,17.57
2018-11-27T03:45:25.330Z,19.98
2018-11-27T03:47:54.583Z,19.37
2018-11-27T03:50:25.746Z,19.10
2018-11-27T03:52:55.222Z,18.42
2018-11-27T03:55:24.003Z,18.02
2018-11-27T03:57:52.751Z,18.05
2018-11-27T04:00:25.412Z,17.05
2018-11-27T04:02:59.219Z,19.35
2018-11-27T04:05:27.932Z,20.75
2018-11-27T04:07:56.632Z,18.32
2018-11-27T04:10:25.278Z,18.27
2018-11-27T04:12:54.701Z,19.52
2018-11-27T04:15:23.454Z,19.95
2018-11-27T04:17:52.371Z,20.30
2018-11-27T04:20:21.083Z,18.85
2018-11-27T04:22:49.833Z,20.50
2018-11-27T04:25:19.074Z,18.82
2018-11-27T04:27:48.194Z,18.92
2018-11-27T04:30:18.799Z,19.27
2018-11-27T04:32:47.660Z,19.55
2018-11-27T04:35:18.722Z,19.87
2018-11-27T04:37:47.604Z,20.55
2018-11-27T04:40:17.488Z,20.00
2018-11-27T04:42:46.817Z,20.30
2018-11-27T04:45:21.927Z,20.92
2018-11-27T04:47:50.650Z,19.82
2018-11-27T04:50:19.718Z,19.48
2018-11-27T04:52:48.474Z,17.95
2018-11-27T04:55:18.209Z,19.40
2018-11-27T04:57:48.147Z,18.67
2018-11-27T05:00:21.814Z,18.57
2018-11-27T05:02:50.626Z,18.92
2018-11-27T05:05:19.371Z,19.42
2018-11-27T05:07:48.041Z,17.75
2018-11-27T05:10:18.526Z,21.17
2018-11-27T05:12:47.330Z,21.10
2018-11-27T05:15:25.902Z,20.30
2018-11-27T05:17:56.264Z,17.45
2018-11-27T05:20:25.015Z,17.12
2018-11-27T05:22:53.677Z,19.40
2018-11-27T05:25:22.429Z,16.90
2018-11-27T05:27:53.976Z,20.80
2018-11-27T05:30:26.737Z,18.90
2018-11-27T05:32:56.346Z,18.50
2018-11-27T05:35:28.045Z,18.67
2018-11-27T05:37:56.922Z,20.43
2018-11-27T05:40:25.942Z,18.92
2018-11-27T05:42:56.617Z,18.00
2018-11-27T05:45:25.868Z,18.02
2018-11-27T05:47:54.520Z,17.17
2018-11-27T05:50:23.307Z,19.75
2018-11-27T05:52:51.993Z,19.15
2018-11-27T05:55:20.886Z,20.08
2018-11-27T05:57:51.163Z,18.60
2018-11-27T06:00:22.107Z,19.87
2018-11-27T06:02:52.459Z,17.32
2018-11-27T06:05:22.093Z,18.77
2018-11-27T06:07:51.085Z,20.25
2018-11-27T06:10:20.909Z,18.48
2018-11-27T06:15:30.341Z,16.42
2018-11-27T06:18:00.652Z,20.23
2018-11-27T06:20:29.420Z,17.92
2018-11-27T06:22:58.730Z,20.35
2018-11-27T06:25:28.710Z,18.10
2018-11-27T06:28:00.129Z,17.73
2018-11-27T06:30:30.280Z,16.60
2018-11-27T06:32:58.941Z,18.70
2018-11-27T06:35:38.443Z,18.32
2018-11-27T06:38:08.942Z,16.97
2018-11-27T06:40:37.797Z,18.65
2018-11-27T06:43:10.481Z,16.02
2018-11-27T06:45:40.157Z,17.77
2018-11-27T06:48:09.456Z,21.05
2018-11-27T06:50:38.138Z,17.75
2018-11-27T06:53:08.221Z,17.17
2018-11-27T06:55:37.232Z,18.50
2018-11-27T06:58:07.234Z,17.30
2018-11-27T07:00:35.996Z,17.27
2018-11-27T07:03:06.677Z,16.07
2018-11-27T07:05:35.328Z,20.30
2018-11-27T07:08:03.985Z,16.17
2018-11-27T07:10:33.829Z,16.80
2018-11-27T07:13:06.369Z,18.77
2018-11-27T07:15:35.191Z,17.32
2018-11-27T07:18:04.186Z,16.80
2018-11-27T07:20:32.879Z,17.35
2018-11-27T07:23:01.574Z,15.03
2018-11-27T07:25:30.300Z,16.93
2018-11-27T07:27:59.041Z,16.67
2018-11-27T07:30:27.776Z,16.45
2018-11-27T07:32:56.381Z,17.55
2018-11-27T07:35:25.122Z,17.77
2018-11-27T07:37:53.852Z,17.77
2018-11-27T07:40:23.689Z,17.10
2018-11-27T07:43:59.649Z,17.42
2018-11-27T07:46:29.388Z,17.35
2018-11-27T07:48:58.615Z,18.12
2018-11-27T07:51:27.368Z,20.02
2018-11-27T07:53:56.153Z,17.23
2018-11-27T07:56:24.872Z,17.87
2018-11-27T07:58:53.744Z,20.00
2018-11-27T08:01:22.408Z,17.05
2018-11-27T08:03:51.480Z,17.50
2018-11-27T08:06:20.675Z,16.60
2018-11-27T08:08:49.335Z,17.80
2018-11-27T08:14:01.669Z,15.38
2018-11-27T08:16:30.404Z,15.65
2018-11-27T08:18:59.315Z,18.40
2018-11-27T08:21:28.038Z,17.95
2018-11-27T08:23:56.734Z,15.93
2018-11-27T08:26:25.546Z,18.98
2018-11-27T08:28:54.305Z,17.70
2018-11-27T08:31:23.561Z,17.55
2018-11-27T08:33:52.547Z,18.67
2018-11-27T08:36:21.952Z,17.15
2018-11-27T08:38:50.656Z,18.87
2018-11-27T08:41:19.479Z,18.95
2018-11-27T08:43:48.348Z,18.62
2018-11-27T08:46:16.987Z,18.52
2018-11-27T08:48:45.680Z,17.05
2018-11-27T08:51:14.258Z,18.67
2018-11-27T08:53:42.848Z,17.73
2018-11-27T08:56:11.618Z,16.27
2018-11-27T08:58:40.267Z,18.50
2018-11-27T09:01:08.939Z,17.67
2018-11-27T09:03:37.658Z,18.80
2018-11-27T09:06:06.931Z,18.73
2018-11-27T09:08:35.759Z,17.20
2018-11-27T09:11:04.911Z,17.05
2018-11-27T09:13:33.545Z,16.82
2018-11-27T09:16:02.169Z,16.95
2018-11-27T09:18:30.917Z,19.32
2018-11-27T09:20:59.871Z,16.77
2018-11-27T09:26:08.789Z,17.02
2018-11-27T09:28:37.511Z,17.25
2018-11-27T09:31:08.269Z,15.95
2018-11-27T09:33:36.903Z,16.30
2018-11-27T09:36:05.864Z,16.82
2018-11-27T09:38:34.689Z,18.15
2018-11-27T09:41:04.181Z,17.10
2018-11-27T09:43:32.806Z,16.32
2018-11-27T09:46:01.436Z,15.75
2018-11-27T09:48:30.167Z,17.87
2018-11-27T09:50:58.880Z,17.85
2018-11-27T09:53:28.655Z,16.97
2018-11-27T09:55:57.258Z,15.60
2018-11-27T09:58:26.146Z,16.95
2018-11-27T10:00:54.745Z,17.73
2018-11-27T10:03:23.357Z,16.65
2018-11-27T10:05:51.942Z,16.77
2018-11-27T10:08:20.675Z,16.25
2018-11-27T10:10:49.386Z,15.58
2018-11-27T10:13:18.329Z,17.48
2018-11-27T10:15:47.058Z,17.60
2018-11-27T10:18:15.844Z,17.55
2018-11-27T10:20:44.589Z,17.95
2018-11-27T10:23:14.223Z,16.95
2018-11-27T10:25:44.008Z,15.88
2018-11-27T10:28:12.768Z,15.85
2018-11-27T10:30:41.486Z,16.25
2018-11-27T10:33:11.484Z,16.80
2018-11-27T10:35:51.690Z,16.25
2018-11-27T10:38:20.421Z,15.28
2018-11-27T10:40:49.044Z,17.30
2018-11-27T10:43:19.888Z,16.57
2018-11-27T10:45:46.476Z,16.85
2018-11-27T10:48:15.361Z,16.70
2018-11-27T10:50:45.556Z,14.73
2018-11-27T10:53:14.478Z,19.48
2018-11-27T10:55:43.197Z,17.98
2018-11-27T10:58:12.146Z,18.62
2018-11-27T11:00:47.067Z,17.00
2018-11-27T11:03:46.023Z,17.65
2018-11-27T11:06:14.850Z,15.25
2018-11-27T11:08:43.586Z,14.55
2018-11-27T11:11:12.864Z,17.45
2018-11-27T11:13:41.648Z,16.02
2018-11-27T11:16:10.997Z,15.60
2018-11-27T11:18:39.655Z,18.57
2018-11-27T11:21:08.440Z,15.60
2018-11-27T11:23:37.135Z,14.58
2018-11-27T11:26:06.444Z,16.45
2018-11-27T11:28:35.116Z,16.23
2018-11-27T11:31:03.733Z,17.27
2018-11-27T11:33:32.365Z,16.32
2018-11-27T11:36:01.047Z,20.32
2018-11-27T11:38:29.818Z,17.00
2018-11-27T11:40:58.870Z,17.02
2018-11-27T11:43:27.511Z,16.32
2018-11-27T11:45:56.173Z,15.50
2018-11-27T11:48:24.814Z,17.10
2018-11-27T11:50:53.497Z,15.30
2018-11-27T11:53:22.146Z,14.60
2018-11-27T11:55:50.829Z,14.68
2018-11-27T11:58:19.519Z,16.62
2018-11-27T12:00:51.507Z,14.45
2018-11-27T12:03:20.275Z,17.80
2018-11-27T12:05:49.139Z,15.78
2018-11-27T12:08:17.940Z,15.98
2018-11-27T12:10:46.686Z,14.83
2018-11-27T12:13:15.403Z,15.00
2018-11-27T12:15:44.078Z,14.60
2018-11-27T12:18:12.803Z,14.95
2018-11-27T12:20:42.880Z,14.83
2018-11-27T12:23:12.752Z,15.05
2018-11-27T12:25:41.793Z,13.90
2018-11-27T12:28:14.682Z,14.40
2018-11-27T12:30:39.653Z,15.10
2018-11-27T12:33:08.374Z,15.70
2018-11-27T12:35:37.178Z,15.43
2018-11-27T12:38:05.920Z,13.72
2018-11-27T12:40:34.768Z,15.08
2018-11-27T12:43:03.501Z,14.80
2018-11-27T12:45:33.074Z,16.20
2018-11-27T12:48:02.717Z,15.10
2018-11-27T12:50:39.292Z,14.50
2018-11-27T12:53:09.108Z,12.20
2018-11-27T12:55:40.072Z,15.20
2018-11-27T12:58:08.927Z,13.50
2018-11-27T13:00:37.617Z,14.20
2018-11-27T13:03:06.717Z,13.40
2018-11-27T13:05:38.955Z,11.75
2018-11-27T13:08:12.993Z,13.80
2018-11-27T13:10:41.608Z,13.48
2018-11-27T13:13:10.272Z,12.85
2018-11-27T13:15:39.923Z,12.35
2018-11-27T13:18:09.601Z,12.82
2018-11-27T13:20:38.719Z,16.93
2018-11-27T13:23:07.861Z,12.37
2018-11-27T13:25:37.449Z,10.32
2018-11-27T13:28:07.612Z,12.47
2018-11-27T13:30:39.335Z,13.00
2018-11-27T13:33:24.478Z,12.60
2018-11-27T13:35:53.145Z,12.05
2018-11-27T13:38:21.866Z,12.45
2018-11-27T13:40:50.676Z,13.72
2018-11-27T13:43:22.031Z,12.63
2018-11-27T13:45:51.297Z,12.15
2018-11-27T13:48:20.063Z,11.48
2018-11-27T13:50:48.810Z,13.30
2018-11-27T13:53:18.052Z,13.65
2018-11-27T13:55:46.748Z,15.38
2018-11-27T13:58:15.423Z,14.07
2018-11-27T14:00:44.133Z,13.90
2018-11-27T14:03:12.691Z,14.00
2018-11-27T14:05:41.279Z,13.75
2018-11-27T14:08:10.906Z,13.83
2018-11-27T14:10:39.950Z,11.40
2018-11-27T14:13:09.240Z,13.60
2018-11-27T14:15:38.355Z,13.95
2018-11-27T14:18:07.926Z,12.33
2018-11-27T14:20:37.022Z,12.25
2018-11-27T14:23:06.378Z,13.25
2018-11-27T14:25:36.111Z,13.45
2018-11-27T14:28:05.056Z,13.60
2018-11-27T14:30:33.742Z,14.15
2018-11-27T14:33:02.480Z,12.93
2018-11-27T14:35:31.210Z,13.58
2018-11-27T14:37:59.953Z,13.32
2018-11-27T14:40:28.788Z,14.80
2018-11-27T14:42:57.480Z,13.78
2018-11-27T14:45:27.148Z,14.60
2018-11-27T14:47:57.091Z,15.70
2018-11-27T14:50:25.805Z,13.68
2018-11-27T14:52:54.511Z,13.70
2018-11-27T14:55:26.556Z,13.22
2018-11-27T14:57:55.342Z,12.25
2018-11-27T15:00:25.108Z,12.30
2018-11-27T15:02:54.684Z,12.05
2018-11-27T15:05:26.007Z,13.53
2018-11-27T15:07:54.755Z,10.68
2018-11-27T15:10:23.520Z,11.60
2018-11-27T15:12:52.756Z,12.00
2018-11-27T15:15:21.423Z,12.25
2018-11-27T15:17:50.306Z,12.70
2018-11-27T15:20:21.101Z,11.85
2018-11-27T15:22:49.823Z,13.05
2018-11-27T15:25:18.705Z,12.07
2018-11-27T15:27:48.127Z,12.35
2018-11-27T15:30:20.102Z,13.53
2018-11-27T15:32:49.814Z,14.15
2018-11-27T15:35:18.540Z,14.30
2018-11-27T15:37:47.138Z,12.68
2018-11-27T15:40:19.325Z,16.57
2018-11-27T15:42:48.032Z,15.95
2018-11-27T15:45:20.026Z,14.98
2018-11-27T15:47:48.868Z,16.62
2018-11-27T15:50:17.605Z,13.32
2018-11-27T15:52:46.354Z,14.70
2018-11-27T15:55:17.351Z,13.40
2018-11-27T15:57:47.307Z,12.90
2018-11-27T16:00:18.252Z,14.18
2018-11-27T16:02:47.109Z,13.93
2018-11-27T16:05:16.428Z,13.78
2018-11-27T16:07:45.165Z,13.72
2018-11-27T16:10:15.549Z,14.30
2018-11-27T16:12:45.057Z,12.05
2018-11-27T16:15:14.898Z,13.78
2018-11-27T16:17:43.825Z,12.50
2018-11-27T16:20:18.153Z,14.07
2018-11-27T16:22:47.964Z,14.47
2018-11-27T16:25:18.986Z,14.43
2018-11-27T16:27:48.358Z,13.03
2018-11-27T16:30:21.746Z,14.23
2018-11-27T16:32:50.421Z,15.88
2018-11-27T16:35:19.071Z,15.40
2018-11-27T16:37:49.480Z,14.40
2018-11-27T16:40:21.618Z,13.45
2018-11-27T16:42:50.266Z,12.50
2018-11-27T16:45:20.075Z,14.33
2018-11-27T16:47:48.850Z,15.20
2018-11-27T16:50:18.126Z,14.55
2018-11-27T16:52:47.354Z,15.30
2018-11-27T16:55:18.995Z,16.48
2018-11-27T16:57:47.744Z,14.58
2018-11-27T17:00:24.330Z,15.98
2018-11-27T17:02:54.069Z,14.65
2018-11-27T17:05:22.744Z,14.13
2018-11-27T17:07:51.418Z,16.52
2018-11-27T17:10:20.808Z,13.18
2018-11-27T17:12:51.929Z,13.95
2018-11-27T17:15:21.591Z,12.73
2018-11-27T17:17:50.359Z,15.45
2018-11-27T17:20:26.276Z,14.55
2018-11-27T17:22:56.316Z,22.20
2018-11-27T17:25:24.952Z,17.48
2018-11-27T17:27:54.458Z,16.07
2018-11-27T17:30:33.229Z,15.28
2018-11-27T17:33:02.000Z,16.67
2018-11-27T17:35:30.522Z,14.00
2018-11-27T17:37:59.324Z,13.53
2018-11-27T17:40:27.921Z,15.32
2018-11-27T17:42:56.605Z,13.90
2018-11-27T17:45:25.306Z,13.38
2018-11-27T17:47:53.928Z,13.55
2018-11-27T17:50:22.719Z,13.05
2018-11-27T17:52:51.304Z,14.53
2018-11-27T17:55:20.163Z,15.65
2018-11-27T17:57:48.924Z,15.60
2018-11-27T18:00:23.550Z,15.55
2018-11-27T18:02:54.070Z,16.25
2018-11-27T18:05:22.884Z,16.52
2018-11-27T18:07:52.080Z,15.00
2018-11-27T18:10:20.788Z,16.62
2018-11-27T18:12:49.639Z,14.45
2018-11-27T18:15:21.451Z,13.78
2018-11-27T18:17:50.524Z,15.80
2018-11-27T18:20:19.378Z,14.83
2018-11-27T18:22:48.234Z,12.65
2018-11-27T18:25:18.811Z,14.65
2018-11-27T18:27:48.913Z,15.75
2018-11-27T18:30:19.899Z,16.48
2018-11-27T18:32:48.675Z,14.70
2018-11-27T18:35:21.329Z,14.30
2018-11-27T18:37:50.634Z,13.88
2018-11-27T18:40:19.354Z,14.50
2018-11-27T18:42:48.204Z,14.73
2018-11-27T18:45:25.390Z,14.35
2018-11-27T18:47:54.087Z,14.58
2018-11-27T18:50:24.001Z,17.90
2018-11-27T18:52:52.927Z,16.00
2018-11-27T18:55:21.663Z,16.02
2018-11-27T18:57:50.396Z,15.28
2018-11-27T19:00:20.704Z,16.23
2018-11-27T19:02:49.464Z,14.63
2018-11-27T19:05:18.166Z,16.07
2018-11-27T19:07:46.884Z,16.57
2018-11-27T19:10:26.143Z,16.40
2018-11-27T19:12:54.850Z,15.45
2018-11-27T19:15:29.638Z,16.85
2018-11-27T19:18:03.487Z,14.00
2018-11-27T19:20:34.576Z,15.55
2018-11-27T19:23:03.384Z,18.25
2018-11-27T19:25:31.998Z,15.20
2018-11-27T19:28:00.644Z,15.13
2018-11-27T19:30:32.130Z,17.15
2018-11-27T19:32:58.110Z,18.77
2018-11-27T19:35:27.339Z,18.05
2018-11-27T19:37:56.052Z,19.07
2018-11-27T19:40:24.696Z,20.37
2018-11-27T19:42:54.604Z,19.12
2018-11-27T19:45:25.193Z,17.67
2018-11-27T19:47:54.314Z,16.65
2018-11-27T19:50:23.307Z,18.73
2018-11-27T19:52:55.116Z,15.65
2018-11-27T19:55:24.124Z,17.45
2018-11-27T19:57:53.854Z,18.12
2018-11-27T20:00:23.669Z,16.57
2018-11-27T20:02:52.478Z,15.68
2018-11-27T20:05:22.376Z,20.15
2018-11-27T20:07:51.063Z,18.52
2018-11-27T20:10:19.938Z,18.55
2018-11-27T20:12:48.744Z,18.32
2018-11-27T20:15:27.208Z,19.10
2018-11-27T20:17:56.935Z,17.62
2018-11-27T20:20:27.794Z,16.62
2018-11-27T20:22:57.636Z,17.80
2018-11-27T20:25:26.421Z,16.62
2018-11-27T20:27:55.394Z,17.85
2018-11-27T20:30:26.711Z,16.82
2018-11-27T20:32:58.067Z,16.95
2018-11-27T20:35:27.209Z,16.73
2018-11-27T20:37:57.295Z,18.02
2018-11-27T20:40:26.157Z,16.37
2018-11-27T20:42:55.004Z,16.20
2018-11-27T20:45:24.990Z,18.05
2018-11-27T20:48:00.662Z,18.27
2018-11-27T20:50:29.376Z,15.83
2018-11-27T20:52:58.004Z,19.15
2018-11-27T20:55:26.755Z,15.25
2018-11-27T20:57:57.356Z,18.90
2018-11-27T21:00:31.874Z,16.60
2018-11-27T21:03:01.592Z,17.32
2018-11-27T21:05:30.293Z,16.42
2018-11-27T21:07:59.181Z,18.70
2018-11-27T21:10:27.948Z,15.13
2018-11-27T21:12:57.352Z,16.40
2018-11-27T21:15:26.119Z,15.13
2018-11-27T21:17:54.749Z,17.30
2018-11-27T21:20:23.505Z,14.87
2018-11-27T21:22:52.104Z,15.00
2018-11-27T21:25:22.776Z,16.27
2018-11-27T21:27:58.062Z,13.68
2018-11-27T21:30:26.700Z,19.20
2018-11-27T21:32:55.498Z,13.25
2018-11-27T21:35:24.151Z,17.80
2018-11-27T21:37:52.770Z,16.37
2018-11-27T21:40:21.868Z,13.65
2018-11-27T21:42:50.579Z,14.85
2018-11-27T21:45:22.448Z,15.05
2018-11-27T21:47:51.849Z,13.93
2018-11-27T21:50:25.648Z,14.33
2018-11-27T21:52:54.290Z,16.02
2018-11-27T21:55:23.008Z,14.80
2018-11-27T21:57:51.593Z,16.23
2018-11-27T22:00:25.578Z,14.15
2018-11-27T22:02:54.334Z,15.98
2018-11-27T22:05:23.840Z,13.95
2018-11-27T22:07:53.681Z,17.17
2018-11-27T22:10:23.829Z,16.80
2018-11-27T22:12:54.899Z,14.13
2018-11-27T22:15:28.270Z,16.65
2018-11-27T22:17:57.397Z,15.23
2018-11-27T22:20:26.150Z,15.20
2018-11-27T22:22:54.812Z,15.55
2018-11-27T22:25:23.455Z,13.30
2018-11-27T22:27:52.173Z,13.32
2018-11-27T22:30:21.402Z,15.35
2018-11-27T22:32:51.135Z,14.58
2018-11-27T22:35:19.915Z,15.48
2018-11-27T22:37:48.533Z,15.08
2018-11-27T22:40:19.542Z,14.18
2018-11-27T22:42:48.806Z,15.00
2018-11-27T22:45:48.678Z,17.27
2018-11-27T22:48:18.259Z,15.55
2018-11-27T22:50:46.877Z,14.80
2018-11-27T22:53:15.544Z,14.33
2018-11-27T22:55:44.262Z,13.60
2018-11-27T22:58:13.002Z,16.55
2018-11-27T23:00:46.930Z,15.83
2018-11-27T23:03:15.591Z,16.25
2018-11-27T23:05:44.313Z,15.95
2018-11-27T23:08:12.988Z,15.40
2018-11-27T23:10:43.111Z,16.67
2018-11-27T23:13:12.233Z,16.35
2018-11-27T23:15:40.918Z,17.15
2018-11-27T23:18:09.579Z,15.45
2018-11-27T23:20:38.262Z,14.87
2018-11-27T23:23:06.993Z,15.72
2018-11-27T23:25:35.698Z,16.10
2018-11-27T23:28:04.427Z,17.35
2018-11-27T23:30:33.081Z,15.13
2018-11-27T23:33:01.777Z,14.55
2018-11-27T23:35:30.398Z,16.52
2018-11-27T23:37:59.179Z,17.42
2018-11-27T23:40:27.925Z,17.70
2018-11-27T23:42:56.612Z,16.55
2018-11-27T23:45:25.400Z,15.58
2018-11-27T23:47:54.001Z,17.45
2018-11-27T23:50:23.085Z,19.70
2018-11-27T23:52:51.752Z,19.87
2018-11-27T23:55:20.834Z,18.20
2018-11-27T23:57:49.472Z,16.57
